Carlsbad, NM

3:17 AM MDT on September 02, 2014 (GMT -0600)
Cavern City | Change Station
CLOSE
Current Station
Airport
Location: Carlsbad,
Elevation: 3294 ft
Nearby Weather Stations

Elev 3294 ft 32.33 °N, 104.26 °W | Updated 24 minutes ago

Clear
Clear
80 °F
Feels Like 80 °F
N
10
Wind Variable Wind from SSE

Today
High -- | Low -- °F
--% Chance of Precip.
Yesterday
High -- | Low -- °F
Precip. -- in
6:32 AM 7:20 PM
Waxing Crescent, 49% visible
Pressure 29.70 in
Visibility 10.0 miles
Clouds Clear
Heat Index 80 °F
Dew Point 56 °F
Humidity 43%
Rainfall 0.00 in
Snow Depth Not available.
UV 0 out of 12
Pollen 10.10 out of 12
Air Quality Not available.
Flu Activity Not available.
METAR KCNM 020853Z AUTO 15009KT 10SM CLR 27/13 A2990 RMK AO2 SLP055 T02670133 53003

More Conditions Fewer Conditions

Pressure 29.70 in
Visibility 10.0 miles
Clouds Clear
Heat Index 80 °F
Dew Point 56 °F
Humidity 43%
Rainfall 0.00 in
Snow Depth Not available.
UV 0 out of 12
Pollen 10.10 out of 12
Air Quality Not available.
Flu Activity Not available.
METAR KCNM 020853Z AUTO 15009KT 10SM CLR 27/13 A2990 RMK AO2 SLP055 T02670133 53003

More Conditions Fewer Conditions

10-Day Weather Forecast

Almanac

Astronomy

Sep. 02, 2014 Rise Set
Actual Time 6:32 AM MDT 7:20 PM MDT
Civil Twilight 6:07 AM MDT 7:44 PM MDT
Nautical Twilight 5:38 AM MDT 8:14 PM MDT
Astronomical Twilight 5:08 AM MDT 8:44 PM MDT
Moon 1:55 PM MDT No Moon Set
Length of Visible Light 13h 37m
Length of Day
12h 47m
Tomorrow will be 1m 55s shorter.
Waxing Crescent, 49% of the Moon is Illuminated
Today
Waxing Crescent
Sep 2
First Quarter
Sep 8
Full
Sep 15
Last Quarter
Sep 24
New

Today's Extremes

State Highs State Lows

Community

WunderPhotos

Upload Photos

1,749,587 photos uploaded!

WunderBlogs® & News

Nearby

Snow Depth

Station Depth Elevation
Sierra Blanca 0 in 10280 ft
McKnight Cabin 0 in 9240 ft
Wesner Springs 1 in 11120 ft
Silver Creek Divide 17 in 9000 ft
Gallegos Peak 0 in 9800 ft

Earthquake Activity

City Distance Mag. Time & Date
No recent earthquake activity has been reported nearby.
Minimum magnitude displayed is 2.5.

Coastal Water Temperatures

Place Temperature
No Stations Reporting

Nearby Weather Stations